sensor_id;sensor_type;location;lat;lon;timestamp;P1;durP1;ratioP1;P2;durP2;ratioP2
6821;SDS011;3449;48.728;8.968;2024-01-06T00:02:07;4.10;;;2.00;;
6821;SDS011;3449;48.728;8.968;2024-01-06T00:04:35;4.10;;;2.40;;
6821;SDS011;3449;48.728;8.968;2024-01-06T00:07:02;3.23;;;2.50;;
6821;SDS011;3449;48.728;8.968;2024-01-06T00:09:29;2.47;;;2.20;;
6821;SDS011;3449;48.728;8.968;2024-01-06T00:11:56;3.20;;;1.83;;
6821;SDS011;3449;48.728;8.968;2024-01-06T00:14:23;3.13;;;2.00;;
6821;SDS011;3449;48.728;8.968;2024-01-06T00:16:50;3.87;;;2.47;;
6821;SDS011;3449;48.728;8.968;2024-01-06T00:19:16;8.10;;;4.10;;
6821;SDS011;3449;48.728;8.968;2024-01-06T00:21:45;17.20;;;7.67;;
6821;SDS011;3449;48.728;8.968;2024-01-06T00:24:11;11.03;;;6.17;;
6821;SDS011;3449;48.728;8.968;2024-01-06T00:26:38;10.67;;;5.60;;
6821;SDS011;3449;48.728;8.968;2024-01-06T00:29:05;6.50;;;3.90;;
6821;SDS011;3449;48.728;8.968;2024-01-06T00:31:32;7.93;;;4.97;;
6821;SDS011;3449;48.728;8.968;2024-01-06T00:33:59;5.93;;;3.40;;
6821;SDS011;3449;48.728;8.968;2024-01-06T00:36:26;6.03;;;3.50;;
6821;SDS011;3449;48.728;8.968;2024-01-06T00:38:54;7.30;;;3.40;;
6821;SDS011;3449;48.728;8.968;2024-01-06T00:41:21;5.00;;;2.60;;
6821;SDS011;3449;48.728;8.968;2024-01-06T00:43:47;5.90;;;2.93;;
6821;SDS011;3449;48.728;8.968;2024-01-06T00:46:14;4.87;;;2.30;;
6821;SDS011;3449;48.728;8.968;2024-01-06T00:48:41;4.37;;;2.70;;
6821;SDS011;3449;48.728;8.968;2024-01-06T00:51:08;2.87;;;2.07;;
6821;SDS011;3449;48.728;8.968;2024-01-06T00:53:35;7.00;;;2.40;;
6821;SDS011;3449;48.728;8.968;2024-01-06T00:56:03;4.10;;;2.20;;
6821;SDS011;3449;48.728;8.968;2024-01-06T00:58:30;8.97;;;2.50;;
6821;SDS011;3449;48.728;8.968;2024-01-06T01:00:57;4.40;;;2.47;;
6821;SDS011;3449;48.728;8.968;2024-01-06T01:03:24;9.13;;;2.90;;
6821;SDS011;3449;48.728;8.968;2024-01-06T01:05:51;6.37;;;3.13;;
6821;SDS011;3449;48.728;8.968;2024-01-06T01:08:17;5.70;;;3.30;;
6821;SDS011;3449;48.728;8.968;2024-01-06T01:10:44;7.73;;;3.50;;
6821;SDS011;3449;48.728;8.968;2024-01-06T01:13:12;7.13;;;3.67;;
6821;SDS011;3449;48.728;8.968;2024-01-06T01:15:39;8.23;;;4.10;;
6821;SDS011;3449;48.728;8.968;2024-01-06T01:18:06;4.97;;;2.50;;
6821;SDS011;3449;48.728;8.968;2024-01-06T01:20:33;5.30;;;2.20;;
6821;SDS011;3449;48.728;8.968;2024-01-06T01:23:00;3.70;;;2.50;;
6821;SDS011;3449;48.728;8.968;2024-01-06T01:25:27;4.77;;;2.60;;
6821;SDS011;3449;48.728;8.968;2024-01-06T01:27:53;4.30;;;2.80;;
6821;SDS011;3449;48.728;8.968;2024-01-06T01:30:21;2.73;;;1.73;;
6821;SDS011;3449;48.728;8.968;2024-01-06T01:32:48;4.10;;;2.70;;
6821;SDS011;3449;48.728;8.968;2024-01-06T01:35:15;4.13;;;2.13;;
6821;SDS011;3449;48.728;8.968;2024-01-06T01:37:42;13.73;;;3.50;;
6821;SDS011;3449;48.728;8.968;2024-01-06T01:40:09;4.80;;;2.50;;
6821;SDS011;3449;48.728;8.968;2024-01-06T01:42:36;3.97;;;2.43;;
6821;SDS011;3449;48.728;8.968;2024-01-06T01:45:03;4.77;;;2.30;;
6821;SDS011;3449;48.728;8.968;2024-01-06T01:47:32;5.10;;;3.60;;
6821;SDS011;3449;48.728;8.968;2024-01-06T01:49:59;7.97;;;4.57;;
6821;SDS011;3449;48.728;8.968;2024-01-06T01:52:27;12.13;;;3.90;;
6821;SDS011;3449;48.728;8.968;2024-01-06T01:54:54;9.80;;;5.67;;
6821;SDS011;3449;48.728;8.968;2024-01-06T01:57:21;11.97;;;4.80;;
6821;SDS011;3449;48.728;8.968;2024-01-06T01:59:51;9.07;;;4.70;;
6821;SDS011;3449;48.728;8.968;2024-01-06T02:02:19;10.30;;;5.63;;
6821;SDS011;3449;48.728;8.968;2024-01-06T02:04:49;12.27;;;4.47;;
6821;SDS011;3449;48.728;8.968;2024-01-06T02:07:15;7.40;;;4.30;;
6821;SDS011;3449;48.728;8.968;2024-01-06T02:09:42;8.23;;;4.43;;
6821;SDS011;3449;48.728;8.968;2024-01-06T02:12:09;6.70;;;3.77;;
6821;SDS011;3449;48.728;8.968;2024-01-06T02:14:36;8.73;;;4.47;;
6821;SDS011;3449;48.728;8.968;2024-01-06T02:17:03;3.70;;;2.80;;
6821;SDS011;3449;48.728;8.968;2024-01-06T02:19:30;9.63;;;2.73;;
6821;SDS011;3449;48.728;8.968;2024-01-06T02:21:58;5.90;;;2.60;;
6821;SDS011;3449;48.728;8.968;2024-01-06T02:24:25;9.40;;;2.60;;
6821;SDS011;3449;48.728;8.968;2024-01-06T02:26:51;2.30;;;1.93;;
6821;SDS011;3449;48.728;8.968;2024-01-06T02:29:18;4.53;;;2.23;;
6821;SDS011;3449;48.728;8.968;2024-01-06T02:31:45;7.77;;;1.87;;
6821;SDS011;3449;48.728;8.968;2024-01-06T02:34:12;4.57;;;1.70;;
6821;SDS011;3449;48.728;8.968;2024-01-06T02:36:39;4.37;;;2.30;;
6821;SDS011;3449;48.728;8.968;2024-01-06T02:39:07;2.43;;;1.70;;
6821;SDS011;3449;48.728;8.968;2024-01-06T02:41:34;2.33;;;1.80;;
6821;SDS011;3449;48.728;8.968;2024-01-06T02:44:01;2.43;;;1.50;;
6821;SDS011;3449;48.728;8.968;2024-01-06T02:46:29;2.57;;;1.50;;
6821;SDS011;3449;48.728;8.968;2024-01-06T02:48:56;3.93;;;1.37;;
6821;SDS011;3449;48.728;8.968;2024-01-06T02:51:23;2.90;;;1.70;;
6821;SDS011;3449;48.728;8.968;2024-01-06T02:53:49;10.13;;;2.27;;
6821;SDS011;3449;48.728;8.968;2024-01-06T02:56:17;4.10;;;1.53;;
6821;SDS011;3449;48.728;8.968;2024-01-06T02:58:44;3.30;;;1.20;;
6821;SDS011;3449;48.728;8.968;2024-01-06T03:01:11;4.23;;;1.10;;
6821;SDS011;3449;48.728;8.968;2024-01-06T03:03:38;4.27;;;1.33;;
6821;SDS011;3449;48.728;8.968;2024-01-06T03:06:05;2.40;;;1.90;;
6821;SDS011;3449;48.728;8.968;2024-01-06T03:08:32;2.93;;;1.73;;
6821;SDS011;3449;48.728;8.968;2024-01-06T03:10:59;5.77;;;2.00;;
6821;SDS011;3449;48.728;8.968;2024-01-06T03:13:28;3.30;;;1.70;;
6821;SDS011;3449;48.728;8.968;2024-01-06T03:15:55;3.07;;;1.30;;
6821;SDS011;3449;48.728;8.968;2024-01-06T03:18:22;1.63;;;1.30;;
6821;SDS011;3449;48.728;8.968;2024-01-06T03:20:49;3.83;;;1.80;;
6821;SDS011;3449;48.728;8.968;2024-01-06T03:23:15;2.13;;;1.10;;
6821;SDS011;3449;48.728;8.968;2024-01-06T03:25:42;3.00;;;1.50;;
6821;SDS011;3449;48.728;8.968;2024-01-06T03:28:09;3.20;;;1.23;;
6821;SDS011;3449;48.728;8.968;2024-01-06T03:30:37;3.93;;;1.63;;
6821;SDS011;3449;48.728;8.968;2024-01-06T03:33:04;2.53;;;1.50;;
6821;SDS011;3449;48.728;8.968;2024-01-06T03:35:32;6.27;;;1.70;;
6821;SDS011;3449;48.728;8.968;2024-01-06T03:37:59;2.73;;;1.70;;
6821;SDS011;3449;48.728;8.968;2024-01-06T03:40:26;1.40;;;1.30;;
6821;SDS011;3449;48.728;8.968;2024-01-06T03:42:52;1.40;;;1.30;;
6821;SDS011;3449;48.728;8.968;2024-01-06T03:45:19;2.20;;;1.37;;
6821;SDS011;3449;48.728;8.968;2024-01-06T03:47:47;3.13;;;1.37;;
6821;SDS011;3449;48.728;8.968;2024-01-06T03:50:14;4.93;;;1.67;;
6821;SDS011;3449;48.728;8.968;2024-01-06T03:52:41;4.10;;;0.97;;
6821;SDS011;3449;48.728;8.968;2024-01-06T03:55:08;2.00;;;1.10;;
6821;SDS011;3449;48.728;8.968;2024-01-06T03:57:35;2.20;;;1.00;;
6821;SDS011;3449;48.728;8.968;2024-01-06T04:00:02;1.67;;;0.90;;
6821;SDS011;3449;48.728;8.968;2024-01-06T04:02:30;3.97;;;1.20;;
6821;SDS011;3449;48.728;8.968;2024-01-06T04:04:58;1.80;;;1.20;;
6821;SDS011;3449;48.728;8.968;2024-01-06T04:07:25;2.73;;;0.93;;
6821;SDS011;3449;48.728;8.968;2024-01-06T04:09:52;2.90;;;1.10;;
6821;SDS011;3449;48.728;8.968;2024-01-06T04:12:19;9.50;;;1.60;;
6821;SDS011;3449;48.728;8.968;2024-01-06T04:14:45;2.57;;;1.03;;
6821;SDS011;3449;48.728;8.968;2024-01-06T04:17:12;1.67;;;1.30;;
6821;SDS011;3449;48.728;8.968;2024-01-06T04:19:39;1.07;;;0.97;;
6821;SDS011;3449;48.728;8.968;2024-01-06T04:22:07;3.03;;;1.40;;
6821;SDS011;3449;48.728;8.968;2024-01-06T04:24:34;3.90;;;1.50;;
6821;SDS011;3449;48.728;8.968;2024-01-06T04:27:02;2.67;;;1.27;;
6821;SDS011;3449;48.728;8.968;2024-01-06T04:29:29;5.13;;;1.70;;
6821;SDS011;3449;48.728;8.968;2024-01-06T04:31:56;4.60;;;1.27;;
6821;SDS011;3449;48.728;8.968;2024-01-06T04:34:23;1.93;;;1.00;;
6821;SDS011;3449;48.728;8.968;2024-01-06T04:36:50;1.73;;;1.17;;
6821;SDS011;3449;48.728;8.968;2024-01-06T04:39:18;3.33;;;1.10;;
6821;SDS011;3449;48.728;8.968;2024-01-06T04:41:45;3.10;;;1.30;;
6821;SDS011;3449;48.728;8.968;2024-01-06T04:44:12;1.77;;;1.10;;
6821;SDS011;3449;48.728;8.968;2024-01-06T04:46:39;3.93;;;1.33;;
6821;SDS011;3449;48.728;8.968;2024-01-06T04:49:05;1.80;;;1.27;;
6821;SDS011;3449;48.728;8.968;2024-01-06T04:51:32;3.07;;;1.17;;
6821;SDS011;3449;48.728;8.968;2024-01-06T04:53:59;3.73;;;1.20;;
6821;SDS011;3449;48.728;8.968;2024-01-06T04:56:27;5.13;;;1.30;;
6821;SDS011;3449;48.728;8.968;2024-01-06T04:58:54;4.40;;;1.57;;
6821;SDS011;3449;48.728;8.968;2024-01-06T05:01:22;2.67;;;1.10;;
6821;SDS011;3449;48.728;8.968;2024-01-06T05:03:49;1.73;;;0.90;;
6821;SDS011;3449;48.728;8.968;2024-01-06T05:06:16;2.50;;;1.10;;
6821;SDS011;3449;48.728;8.968;2024-01-06T05:08:43;7.60;;;1.50;;
6821;SDS011;3449;48.728;8.968;2024-01-06T05:11:10;4.53;;;1.80;;
6821;SDS011;3449;48.728;8.968;2024-01-06T05:13:38;5.03;;;2.27;;
6821;SDS011;3449;48.728;8.968;2024-01-06T05:16:05;5.37;;;1.63;;
6821;SDS011;3449;48.728;8.968;2024-01-06T05:18:32;2.90;;;1.60;;
6821;SDS011;3449;48.728;8.968;2024-01-06T05:20:59;2.50;;;1.30;;
6821;SDS011;3449;48.728;8.968;2024-01-06T05:23:26;1.80;;;1.17;;
6821;SDS011;3449;48.728;8.968;2024-01-06T05:25:52;1.60;;;1.20;;
6821;SDS011;3449;48.728;8.968;2024-01-06T05:28:19;5.07;;;1.50;;
6821;SDS011;3449;48.728;8.968;2024-01-06T05:30:47;4.63;;;1.27;;
6821;SDS011;3449;48.728;8.968;2024-01-06T05:33:15;1.60;;;1.17;;
6821;SDS011;3449;48.728;8.968;2024-01-06T05:35:42;4.67;;;1.20;;
6821;SDS011;3449;48.728;8.968;2024-01-06T05:38:09;1.20;;;1.07;;
6821;SDS011;3449;48.728;8.968;2024-01-06T05:40:35;2.10;;;1.20;;
6821;SDS011;3449;48.728;8.968;2024-01-06T05:43:02;11.73;;;1.60;;
6821;SDS011;3449;48.728;8.968;2024-01-06T05:45:29;8.00;;;1.40;;
6821;SDS011;3449;48.728;8.968;2024-01-06T05:47:58;4.87;;;1.40;;
6821;SDS011;3449;48.728;8.968;2024-01-06T05:50:24;2.20;;;1.30;;
6821;SDS011;3449;48.728;8.968;2024-01-06T05:52:51;4.93;;;2.57;;
6821;SDS011;3449;48.728;8.968;2024-01-06T05:55:18;4.00;;;1.77;;
6821;SDS011;3449;48.728;8.968;2024-01-06T05:57:45;4.83;;;2.37;;
6821;SDS011;3449;48.728;8.968;2024-01-06T06:00:12;5.70;;;3.30;;
6821;SDS011;3449;48.728;8.968;2024-01-06T06:02:40;5.97;;;2.80;;
6821;SDS011;3449;48.728;8.968;2024-01-06T06:05:08;4.73;;;2.60;;
6821;SDS011;3449;48.728;8.968;2024-01-06T06:07:35;8.63;;;3.13;;
6821;SDS011;3449;48.728;8.968;2024-01-06T06:10:05;7.43;;;2.47;;
6821;SDS011;3449;48.728;8.968;2024-01-06T06:12:33;7.73;;;1.90;;
6821;SDS011;3449;48.728;8.968;2024-01-06T06:15:00;3.07;;;1.47;;
6821;SDS011;3449;48.728;8.968;2024-01-06T06:17:28;8.50;;;1.47;;
6821;SDS011;3449;48.728;8.968;2024-01-06T06:19:57;2.50;;;1.17;;
6821;SDS011;3449;48.728;8.968;2024-01-06T06:22:26;5.00;;;1.60;;
6821;SDS011;3449;48.728;8.968;2024-01-06T06:24:55;1.80;;;1.33;;
6821;SDS011;3449;48.728;8.968;2024-01-06T06:27:22;3.43;;;1.70;;
6821;SDS011;3449;48.728;8.968;2024-01-06T06:29:49;2.10;;;1.87;;
6821;SDS011;3449;48.728;8.968;2024-01-06T06:32:16;1.57;;;1.47;;
6821;SDS011;3449;48.728;8.968;2024-01-06T06:34:42;2.30;;;1.60;;
6821;SDS011;3449;48.728;8.968;2024-01-06T06:37:09;2.20;;;1.47;;
6821;SDS011;3449;48.728;8.968;2024-01-06T06:39:38;3.30;;;1.17;;
6821;SDS011;3449;48.728;8.968;2024-01-06T06:42:05;3.60;;;1.23;;
6821;SDS011;3449;48.728;8.968;2024-01-06T06:44:31;1.17;;;1.10;;
6821;SDS011;3449;48.728;8.968;2024-01-06T06:46:58;1.47;;;1.37;;
6821;SDS011;3449;48.728;8.968;2024-01-06T06:49:25;1.77;;;1.57;;
6821;SDS011;3449;48.728;8.968;2024-01-06T06:51:52;2.10;;;1.10;;
6821;SDS011;3449;48.728;8.968;2024-01-06T06:54:21;4.30;;;1.23;;
6821;SDS011;3449;48.728;8.968;2024-01-06T06:56:49;2.13;;;1.23;;
6821;SDS011;3449;48.728;8.968;2024-01-06T06:59:16;1.20;;;1.03;;
6821;SDS011;3449;48.728;8.968;2024-01-06T07:01:42;1.67;;;1.57;;
6821;SDS011;3449;48.728;8.968;2024-01-06T07:04:09;2.70;;;1.37;;
6821;SDS011;3449;48.728;8.968;2024-01-06T07:06:36;2.30;;;1.20;;
6821;SDS011;3449;48.728;8.968;2024-01-06T07:09:03;1.07;;;1.03;;
6821;SDS011;3449;48.728;8.968;2024-01-06T07:11:30;1.77;;;1.17;;
6821;SDS011;3449;48.728;8.968;2024-01-06T07:13:59;1.57;;;1.07;;
6821;SDS011;3449;48.728;8.968;2024-01-06T07:16:26;4.67;;;2.50;;
6821;SDS011;3449;48.728;8.968;2024-01-06T07:18:53;7.20;;;3.20;;
6821;SDS011;3449;48.728;8.968;2024-01-06T07:21:19;7.17;;;2.90;;
6821;SDS011;3449;48.728;8.968;2024-01-06T07:23:46;3.27;;;2.20;;
6821;SDS011;3449;48.728;8.968;2024-01-06T07:26:13;1.47;;;1.37;;
6821;SDS011;3449;48.728;8.968;2024-01-06T07:28:40;1.50;;;1.33;;
6821;SDS011;3449;48.728;8.968;2024-01-06T07:31:08;2.43;;;1.27;;
6821;SDS011;3449;48.728;8.968;2024-01-06T07:33:35;1.27;;;1.20;;
6821;SDS011;3449;48.728;8.968;2024-01-06T07:36:02;1.23;;;1.13;;
6821;SDS011;3449;48.728;8.968;2024-01-06T07:38:29;1.83;;;1.43;;
6821;SDS011;3449;48.728;8.968;2024-01-06T07:40:57;6.07;;;1.40;;
6821;SDS011;3449;48.728;8.968;2024-01-06T07:43:23;2.23;;;1.60;;
6821;SDS011;3449;48.728;8.968;2024-01-06T07:45:51;1.50;;;1.40;;
6821;SDS011;3449;48.728;8.968;2024-01-06T07:48:19;1.20;;;1.20;;
6821;SDS011;3449;48.728;8.968;2024-01-06T07:50:46;2.10;;;1.70;;
6821;SDS011;3449;48.728;8.968;2024-01-06T07:53:12;1.73;;;1.57;;
6821;SDS011;3449;48.728;8.968;2024-01-06T07:55:40;4.80;;;1.90;;
6821;SDS011;3449;48.728;8.968;2024-01-06T07:58:06;1.47;;;1.33;;
6821;SDS011;3449;48.728;8.968;2024-01-06T08:00:33;2.93;;;1.87;;
6821;SDS011;3449;48.728;8.968;2024-01-06T08:03:00;2.10;;;1.60;;
6821;SDS011;3449;48.728;8.968;2024-01-06T08:05:31;3.53;;;2.03;;
6821;SDS011;3449;48.728;8.968;2024-01-06T08:07:58;3.00;;;2.20;;
6821;SDS011;3449;48.728;8.968;2024-01-06T08:10:24;2.10;;;1.67;;
6821;SDS011;3449;48.728;8.968;2024-01-06T08:12:51;3.10;;;1.50;;
6821;SDS011;3449;48.728;8.968;2024-01-06T08:15:19;3.37;;;1.90;;
6821;SDS011;3449;48.728;8.968;2024-01-06T08:17:45;3.03;;;2.23;;
6821;SDS011;3449;48.728;8.968;2024-01-06T08:20:12;3.57;;;1.90;;
6821;SDS011;3449;48.728;8.968;2024-01-06T08:22:40;2.83;;;2.40;;
6821;SDS011;3449;48.728;8.968;2024-01-06T08:25:07;1.97;;;1.80;;
6821;SDS011;3449;48.728;8.968;2024-01-06T08:27:35;2.53;;;2.07;;
6821;SDS011;3449;48.728;8.968;2024-01-06T08:30:03;5.10;;;2.20;;
6821;SDS011;3449;48.728;8.968;2024-01-06T08:32:31;4.07;;;2.20;;
6821;SDS011;3449;48.728;8.968;2024-01-06T08:34:58;1.60;;;1.50;;
6821;SDS011;3449;48.728;8.968;2024-01-06T08:37:24;2.80;;;2.00;;
6821;SDS011;3449;48.728;8.968;2024-01-06T08:39:53;2.77;;;2.03;;
6821;SDS011;3449;48.728;8.968;2024-01-06T08:42:19;6.43;;;1.60;;
6821;SDS011;3449;48.728;8.968;2024-01-06T08:44:46;1.50;;;1.40;;
6821;SDS011;3449;48.728;8.968;2024-01-06T08:47:13;1.77;;;1.63;;
6821;SDS011;3449;48.728;8.968;2024-01-06T08:49:40;4.37;;;2.07;;
6821;SDS011;3449;48.728;8.968;2024-01-06T08:52:07;1.90;;;1.80;;
6821;SDS011;3449;48.728;8.968;2024-01-06T08:54:34;2.10;;;1.17;;
6821;SDS011;3449;48.728;8.968;2024-01-06T08:57:02;2.87;;;1.90;;
6821;SDS011;3449;48.728;8.968;2024-01-06T08:59:29;2.23;;;1.83;;
6821;SDS011;3449;48.728;8.968;2024-01-06T09:01:56;1.60;;;1.43;;
6821;SDS011;3449;48.728;8.968;2024-01-06T09:04:23;1.50;;;1.40;;
6821;SDS011;3449;48.728;8.968;2024-01-06T09:06:50;2.30;;;1.97;;
6821;SDS011;3449;48.728;8.968;2024-01-06T09:09:16;1.90;;;1.80;;
6821;SDS011;3449;48.728;8.968;2024-01-06T09:11:43;3.27;;;1.40;;
6821;SDS011;3449;48.728;8.968;2024-01-06T09:14:12;1.10;;;1.00;;
6821;SDS011;3449;48.728;8.968;2024-01-06T09:16:39;2.77;;;1.30;;
6821;SDS011;3449;48.728;8.968;2024-01-06T09:19:06;19.43;;;7.47;;
6821;SDS011;3449;48.728;8.968;2024-01-06T09:21:33;7.03;;;3.30;;
6821;SDS011;3449;48.728;8.968;2024-01-06T09:24:00;3.03;;;2.70;;
6821;SDS011;3449;48.728;8.968;2024-01-06T09:26:31;2.83;;;1.20;;
6821;SDS011;3449;48.728;8.968;2024-01-06T09:28:58;1.80;;;1.70;;
6821;SDS011;3449;48.728;8.968;2024-01-06T09:31:27;1.40;;;1.20;;
6821;SDS011;3449;48.728;8.968;2024-01-06T09:33:54;5.50;;;2.20;;
6821;SDS011;3449;48.728;8.968;2024-01-06T09:36:21;2.53;;;1.80;;
6821;SDS011;3449;48.728;8.968;2024-01-06T09:38:47;1.73;;;1.53;;
6821;SDS011;3449;48.728;8.968;2024-01-06T09:41:14;1.93;;;1.73;;
6821;SDS011;3449;48.728;8.968;2024-01-06T09:43:41;7.97;;;3.60;;
6821;SDS011;3449;48.728;8.968;2024-01-06T09:46:10;1.30;;;1.10;;
6821;SDS011;3449;48.728;8.968;2024-01-06T09:48:42;2.30;;;2.10;;
6821;SDS011;3449;48.728;8.968;2024-01-06T09:51:11;2.00;;;1.10;;
6821;SDS011;3449;48.728;8.968;2024-01-06T09:53:40;0.80;;;0.80;;
6821;SDS011;3449;48.728;8.968;2024-01-06T09:56:11;0.63;;;0.60;;
6821;SDS011;3449;48.728;8.968;2024-01-06T09:58:39;1.90;;;0.70;;
6821;SDS011;3449;48.728;8.968;2024-01-06T10:01:07;2.53;;;1.00;;
6821;SDS011;3449;48.728;8.968;2024-01-06T10:03:34;1.17;;;1.07;;
6821;SDS011;3449;48.728;8.968;2024-01-06T10:06:03;1.70;;;0.87;;
6821;SDS011;3449;48.728;8.968;2024-01-06T10:08:30;0.70;;;0.70;;
6821;SDS011;3449;48.728;8.968;2024-01-06T10:10:58;1.17;;;0.80;;
6821;SDS011;3449;48.728;8.968;2024-01-06T10:13:26;5.33;;;0.80;;
6821;SDS011;3449;48.728;8.968;2024-01-06T10:15:53;0.70;;;0.70;;
6821;SDS011;3449;48.728;8.968;2024-01-06T10:18:21;2.40;;;0.60;;
6821;SDS011;3449;48.728;8.968;2024-01-06T10:20:48;0.67;;;0.67;;
6821;SDS011;3449;48.728;8.968;2024-01-06T10:23:17;0.60;;;0.60;;
6821;SDS011;3449;48.728;8.968;2024-01-06T10:25:44;0.73;;;0.73;;
6821;SDS011;3449;48.728;8.968;2024-01-06T10:28:11;0.70;;;0.70;;
6821;SDS011;3449;48.728;8.968;2024-01-06T10:30:39;0.57;;;0.57;;
6821;SDS011;3449;48.728;8.968;2024-01-06T10:33:09;1.40;;;0.63;;
6821;SDS011;3449;48.728;8.968;2024-01-06T10:35:38;0.50;;;0.43;;
6821;SDS011;3449;48.728;8.968;2024-01-06T10:38:06;1.23;;;0.80;;
6821;SDS011;3449;48.728;8.968;2024-01-06T10:40:34;0.80;;;0.80;;
6821;SDS011;3449;48.728;8.968;2024-01-06T10:43:01;1.03;;;0.57;;
6821;SDS011;3449;48.728;8.968;2024-01-06T10:45:30;1.23;;;0.97;;
6821;SDS011;3449;48.728;8.968;2024-01-06T10:47:56;0.60;;;0.60;;
6821;SDS011;3449;48.728;8.968;2024-01-06T10:50:25;0.50;;;0.43;;
6821;SDS011;3449;48.728;8.968;2024-01-06T10:52:54;0.60;;;0.60;;
6821;SDS011;3449;48.728;8.968;2024-01-06T10:55:22;0.70;;;0.70;;
6821;SDS011;3449;48.728;8.968;2024-01-06T10:57:53;0.83;;;0.80;;
6821;SDS011;3449;48.728;8.968;2024-01-06T11:00:21;1.20;;;1.10;;
6821;SDS011;3449;48.728;8.968;2024-01-06T11:02:48;2.70;;;1.40;;
6821;SDS011;3449;48.728;8.968;2024-01-06T11:05:17;1.10;;;0.90;;
6821;SDS011;3449;48.728;8.968;2024-01-06T11:07:46;1.30;;;1.20;;
6821;SDS011;3449;48.728;8.968;2024-01-06T11:10:17;1.03;;;0.73;;
6821;SDS011;3449;48.728;8.968;2024-01-06T11:12:45;0.83;;;0.70;;
6821;SDS011;3449;48.728;8.968;2024-01-06T11:15:39;2.23;;;0.70;;
6821;SDS011;3449;48.728;8.968;2024-01-06T11:18:07;1.03;;;0.70;;
6821;SDS011;3449;48.728;8.968;2024-01-06T11:20:34;0.50;;;0.40;;
6821;SDS011;3449;48.728;8.968;2024-01-06T11:23:17;0.50;;;0.50;;
6821;SDS011;3449;48.728;8.968;2024-01-06T11:25:46;0.70;;;0.50;;
6821;SDS011;3449;48.728;8.968;2024-01-06T11:28:13;1.00;;;0.90;;
6821;SDS011;3449;48.728;8.968;2024-01-06T11:30:43;1.33;;;0.80;;
6821;SDS011;3449;48.728;8.968;2024-01-06T11:33:10;0.60;;;0.60;;
6821;SDS011;3449;48.728;8.968;2024-01-06T11:35:37;0.40;;;0.40;;
6821;SDS011;3449;48.728;8.968;2024-01-06T11:38:06;0.60;;;0.43;;
6821;SDS011;3449;48.728;8.968;2024-01-06T11:40:34;0.60;;;0.60;;
6821;SDS011;3449;48.728;8.968;2024-01-06T11:43:02;0.40;;;0.30;;
6821;SDS011;3449;48.728;8.968;2024-01-06T11:45:30;1.43;;;0.50;;
6821;SDS011;3449;48.728;8.968;2024-01-06T11:48:00;1.13;;;0.70;;
6821;SDS011;3449;48.728;8.968;2024-01-06T11:50:28;0.73;;;0.70;;
6821;SDS011;3449;48.728;8.968;2024-01-06T11:52:55;9.93;;;0.70;;
6821;SDS011;3449;48.728;8.968;2024-01-06T11:55:22;0.50;;;0.40;;
6821;SDS011;3449;48.728;8.968;2024-01-06T11:57:49;0.70;;;0.67;;
6821;SDS011;3449;48.728;8.968;2024-01-06T12:00:17;0.60;;;0.60;;
6821;SDS011;3449;48.728;8.968;2024-01-06T12:02:44;0.80;;;0.60;;
6821;SDS011;3449;48.728;8.968;2024-01-06T12:05:16;0.70;;;0.70;;
6821;SDS011;3449;48.728;8.968;2024-01-06T12:07:43;0.60;;;0.60;;
6821;SDS011;3449;48.728;8.968;2024-01-06T12:10:19;0.70;;;0.60;;
6821;SDS011;3449;48.728;8.968;2024-01-06T12:12:54;0.97;;;0.70;;
6821;SDS011;3449;48.728;8.968;2024-01-06T12:15:21;5.93;;;2.20;;
6821;SDS011;3449;48.728;8.968;2024-01-06T12:17:48;1.43;;;0.80;;
6821;SDS011;3449;48.728;8.968;2024-01-06T12:20:16;1.53;;;1.10;;
6821;SDS011;3449;48.728;8.968;2024-01-06T12:22:43;1.30;;;1.20;;
6821;SDS011;3449;48.728;8.968;2024-01-06T12:25:10;1.30;;;0.83;;
6821;SDS011;3449;48.728;8.968;2024-01-06T12:27:41;1.77;;;1.17;;
6821;SDS011;3449;48.728;8.968;2024-01-06T12:30:11;1.50;;;1.40;;
6821;SDS011;3449;48.728;8.968;2024-01-06T12:32:40;13.63;;;4.90;;
6821;SDS011;3449;48.728;8.968;2024-01-06T12:35:08;15.83;;;6.40;;
6821;SDS011;3449;48.728;8.968;2024-01-06T12:37:38;7.73;;;4.20;;
6821;SDS011;3449;48.728;8.968;2024-01-06T12:40:05;5.83;;;2.83;;
6821;SDS011;3449;48.728;8.968;2024-01-06T12:42:35;1.20;;;1.10;;
6821;SDS011;3449;48.728;8.968;2024-01-06T12:45:03;1.30;;;1.20;;
6821;SDS011;3449;48.728;8.968;2024-01-06T12:47:30;3.53;;;1.07;;
6821;SDS011;3449;48.728;8.968;2024-01-06T12:49:58;1.20;;;1.10;;
6821;SDS011;3449;48.728;8.968;2024-01-06T12:52:24;1.40;;;1.27;;
6821;SDS011;3449;48.728;8.968;2024-01-06T12:54:53;1.00;;;1.00;;
6821;SDS011;3449;48.728;8.968;2024-01-06T12:57:19;1.17;;;1.00;;
6821;SDS011;3449;48.728;8.968;2024-01-06T12:59:46;1.37;;;1.20;;
6821;SDS011;3449;48.728;8.968;2024-01-06T13:02:13;1.80;;;1.50;;
6821;SDS011;3449;48.728;8.968;2024-01-06T13:04:40;0.90;;;0.90;;
6821;SDS011;3449;48.728;8.968;2024-01-06T13:07:07;1.57;;;1.40;;
6821;SDS011;3449;48.728;8.968;2024-01-06T13:09:34;1.10;;;0.97;;
6821;SDS011;3449;48.728;8.968;2024-01-06T13:12:02;1.37;;;1.10;;
6821;SDS011;3449;48.728;8.968;2024-01-06T13:14:30;1.03;;;1.03;;
6821;SDS011;3449;48.728;8.968;2024-01-06T13:16:57;1.17;;;1.07;;
6821;SDS011;3449;48.728;8.968;2024-01-06T13:19:24;1.43;;;1.30;;
6821;SDS011;3449;48.728;8.968;2024-01-06T13:21:52;1.63;;;1.53;;
6821;SDS011;3449;48.728;8.968;2024-01-06T13:24:19;1.90;;;1.80;;
6821;SDS011;3449;48.728;8.968;2024-01-06T13:26:45;1.87;;;1.77;;
6821;SDS011;3449;48.728;8.968;2024-01-06T13:29:14;1.70;;;1.60;;
6821;SDS011;3449;48.728;8.968;2024-01-06T13:31:43;2.23;;;2.03;;
6821;SDS011;3449;48.728;8.968;2024-01-06T13:34:09;2.17;;;1.97;;
6821;SDS011;3449;48.728;8.968;2024-01-06T13:36:36;2.70;;;2.50;;
6821;SDS011;3449;48.728;8.968;2024-01-06T13:39:03;2.43;;;2.23;;
6821;SDS011;3449;48.728;8.968;2024-01-06T13:41:31;2.40;;;2.20;;
6821;SDS011;3449;48.728;8.968;2024-01-06T13:43:58;2.70;;;2.23;;
6821;SDS011;3449;48.728;8.968;2024-01-06T13:46:26;1.70;;;1.60;;
6821;SDS011;3449;48.728;8.968;2024-01-06T13:48:53;1.40;;;1.30;;
6821;SDS011;3449;48.728;8.968;2024-01-06T13:51:20;2.27;;;2.07;;
6821;SDS011;3449;48.728;8.968;2024-01-06T13:53:47;2.50;;;2.30;;
6821;SDS011;3449;48.728;8.968;2024-01-06T13:56:14;2.00;;;1.77;;
6821;SDS011;3449;48.728;8.968;2024-01-06T13:58:41;1.97;;;1.87;;
6821;SDS011;3449;48.728;8.968;2024-01-06T14:01:08;2.20;;;2.10;;
6821;SDS011;3449;48.728;8.968;2024-01-06T14:03:37;1.77;;;1.67;;
6821;SDS011;3449;48.728;8.968;2024-01-06T14:06:04;2.27;;;1.70;;
6821;SDS011;3449;48.728;8.968;2024-01-06T14:08:32;2.23;;;2.13;;
6821;SDS011;3449;48.728;8.968;2024-01-06T14:10:58;2.20;;;2.00;;
6821;SDS011;3449;48.728;8.968;2024-01-06T14:13:25;1.63;;;1.53;;
6821;SDS011;3449;48.728;8.968;2024-01-06T14:15:52;2.50;;;2.30;;
6821;SDS011;3449;48.728;8.968;2024-01-06T14:18:19;3.47;;;2.40;;
6821;SDS011;3449;48.728;8.968;2024-01-06T14:20:47;5.83;;;2.63;;
6821;SDS011;3449;48.728;8.968;2024-01-06T14:23:14;3.00;;;2.40;;
6821;SDS011;3449;48.728;8.968;2024-01-06T14:25:41;3.07;;;2.60;;
6821;SDS011;3449;48.728;8.968;2024-01-06T14:28:08;4.33;;;2.60;;
6821;SDS011;3449;48.728;8.968;2024-01-06T14:30:35;3.47;;;2.47;;
6821;SDS011;3449;48.728;8.968;2024-01-06T14:33:01;3.80;;;3.10;;
6821;SDS011;3449;48.728;8.968;2024-01-06T14:35:28;2.77;;;2.57;;
6821;SDS011;3449;48.728;8.968;2024-01-06T14:37:57;4.00;;;2.93;;
6821;SDS011;3449;48.728;8.968;2024-01-06T14:40:23;6.50;;;2.47;;
6821;SDS011;3449;48.728;8.968;2024-01-06T14:42:51;3.40;;;3.10;;
6821;SDS011;3449;48.728;8.968;2024-01-06T14:45:18;3.10;;;2.80;;
6821;SDS011;3449;48.728;8.968;2024-01-06T14:47:45;9.93;;;3.90;;
6821;SDS011;3449;48.728;8.968;2024-01-06T14:50:12;3.70;;;3.40;;
6821;SDS011;3449;48.728;8.968;2024-01-06T14:52:39;8.70;;;2.80;;
6821;SDS011;3449;48.728;8.968;2024-01-06T14:55:07;4.87;;;3.07;;
6821;SDS011;3449;48.728;8.968;2024-01-06T14:57:35;3.80;;;3.30;;
6821;SDS011;3449;48.728;8.968;2024-01-06T15:00:02;3.80;;;3.20;;
6821;SDS011;3449;48.728;8.968;2024-01-06T15:02:29;3.30;;;2.47;;
6821;SDS011;3449;48.728;8.968;2024-01-06T15:04:56;3.07;;;2.40;;
6821;SDS011;3449;48.728;8.968;2024-01-06T15:07:23;4.20;;;2.80;;
6821;SDS011;3449;48.728;8.968;2024-01-06T15:09:51;4.10;;;3.00;;
6821;SDS011;3449;48.728;8.968;2024-01-06T15:12:19;4.03;;;2.77;;
6821;SDS011;3449;48.728;8.968;2024-01-06T15:14:46;3.20;;;2.70;;
6821;SDS011;3449;48.728;8.968;2024-01-06T15:17:12;3.30;;;3.00;;